createdAt,value
2019-03-27T00:00:23.601Z,0
2019-03-27T00:01:23.727Z,0
2019-03-27T00:02:23.839Z,0
2019-03-27T00:03:23.940Z,0
2019-03-27T00:04:24.035Z,0
2019-03-27T00:05:24.152Z,0
2019-03-27T00:06:24.272Z,0
2019-03-27T00:07:24.376Z,0
2019-03-27T00:08:24.502Z,0
2019-03-27T00:09:24.642Z,0
2019-03-27T00:10:24.806Z,0
2019-03-27T00:11:24.746Z,0
2019-03-27T00:12:24.861Z,0
2019-03-27T00:13:24.971Z,0
2019-03-27T00:14:25.103Z,0
2019-03-27T00:15:25.254Z,0
2019-03-27T00:16:25.351Z,0
2019-03-27T00:17:25.444Z,0
2019-03-27T00:18:25.548Z,0
2019-03-27T00:19:25.691Z,0
2019-03-27T00:20:25.874Z,0
2019-03-27T00:21:25.830Z,0
2019-03-27T00:22:25.976Z,0
2019-03-27T00:23:26.091Z,0
2019-03-27T00:24:26.206Z,0
2019-03-27T00:25:26.335Z,0
2019-03-27T00:26:26.479Z,0
2019-03-27T00:27:26.623Z,0
2019-03-27T00:28:26.560Z,0
2019-03-27T00:29:26.704Z,0
2019-03-27T00:30:26.865Z,0
2019-03-27T00:31:26.969Z,0
2019-03-27T00:32:27.069Z,0
2019-03-27T00:33:27.220Z,0
2019-03-27T00:34:27.308Z,0
2019-03-27T00:35:27.457Z,0
2019-03-27T00:36:27.563Z,0
2019-03-27T00:37:27.678Z,0
2019-03-27T00:38:27.799Z,0
2019-03-27T00:39:27.924Z,0
2019-03-27T00:40:28.107Z,0
2019-03-27T00:41:28.045Z,0
2019-03-27T00:42:28.157Z,0
2019-03-27T00:43:28.267Z,0
2019-03-27T00:44:28.370Z,0
2019-03-27T00:45:28.498Z,0
2019-03-27T00:46:28.623Z,0
2019-03-27T00:47:28.771Z,0
2019-03-27T00:48:28.782Z,0
2019-03-27T00:49:28.739Z,0
2019-03-27T00:50:28.882Z,0
2019-03-27T00:51:28.988Z,0
2019-03-27T00:52:29.118Z,0
2019-03-27T00:53:29.225Z,0
2019-03-27T00:54:29.338Z,0
2019-03-27T00:55:29.488Z,0
2019-03-27T00:56:29.605Z,0
2019-03-27T00:57:29.711Z,0
2019-03-27T00:58:29.838Z,0
2019-03-27T00:59:29.956Z,0
2019-03-27T01:00:30.123Z,0
2019-03-27T01:01:30.055Z,0
2019-03-27T01:02:30.173Z,0
2019-03-27T01:03:30.303Z,0
2019-03-27T01:04:30.420Z,0
2019-03-27T01:05:30.562Z,0
2019-03-27T01:06:30.686Z,0
2019-03-27T01:07:30.790Z,0
2019-03-27T01:08:30.899Z,0
2019-03-27T01:09:31.014Z,0
2019-03-27T01:10:31.264Z,0
2019-03-27T01:11:31.139Z,0
2019-03-27T01:12:31.257Z,0
2019-03-27T01:13:31.361Z,0
2019-03-27T01:14:31.492Z,0
2019-03-27T01:15:39.452Z,0
2019-03-27T01:16:32.687Z,0
2019-03-27T01:17:31.798Z,0
2019-03-27T01:18:31.920Z,0
2019-03-27T01:19:32.062Z,0
2019-03-27T01:20:32.222Z,0
2019-03-27T01:21:32.175Z,0
2019-03-27T01:22:32.304Z,0
2019-03-27T01:23:32.407Z,0
2019-03-27T01:24:32.551Z,0
2019-03-27T01:25:32.736Z,0
2019-03-27T01:26:32.803Z,0
2019-03-27T01:27:35.475Z,0
2019-03-27T01:28:33.066Z,0
2019-03-27T01:29:33.172Z,0
2019-03-27T01:30:33.377Z,0
2019-03-27T01:31:33.441Z,0
2019-03-27T01:32:33.551Z,0
2019-03-27T01:33:33.646Z,0
2019-03-27T01:34:33.760Z,0
2019-03-27T01:35:34.903Z,0
2019-03-27T01:36:34.007Z,0
2019-03-27T01:37:34.115Z,0
2019-03-27T01:38:34.218Z,0
2019-03-27T01:39:34.329Z,0
2019-03-27T01:40:34.488Z,0
2019-03-27T01:41:34.638Z,0
2019-03-27T01:42:34.712Z,0
2019-03-27T01:43:34.825Z,0
2019-03-27T01:44:34.925Z,0
2019-03-27T01:45:35.054Z,0
2019-03-27T01:46:36.127Z,0
2019-03-27T01:47:35.243Z,0
2019-03-27T01:48:35.365Z,0
2019-03-27T01:49:35.504Z,0
2019-03-27T01:50:35.628Z,0
2019-03-27T01:51:35.734Z,0
2019-03-27T01:52:35.833Z,0
2019-03-27T01:53:35.954Z,0
2019-03-27T01:54:36.091Z,0
2019-03-27T01:55:36.268Z,0
2019-03-27T01:56:36.202Z,0
2019-03-27T01:57:36.322Z,0
2019-03-27T01:58:36.437Z,0
2019-03-27T01:59:36.537Z,0
2019-03-27T02:00:36.661Z,0
2019-03-27T02:01:36.758Z,0
2019-03-27T02:02:37.877Z,0
2019-03-27T02:03:36.966Z,0
2019-03-27T02:04:37.072Z,0
2019-03-27T02:05:37.245Z,0
2019-03-27T02:06:37.388Z,0
2019-03-27T02:07:37.520Z,0
2019-03-27T02:08:37.645Z,0
2019-03-27T02:09:37.749Z,0
2019-03-27T02:10:37.902Z,0
2019-03-27T02:11:37.879Z,0
2019-03-27T02:12:37.977Z,0
2019-03-27T02:13:38.092Z,0
2019-03-27T02:14:38.219Z,0
2019-03-27T02:15:38.355Z,0
2019-03-27T02:16:38.496Z,0
2019-03-27T02:17:38.635Z,0
2019-03-27T02:18:38.753Z,0
2019-03-27T02:19:38.862Z,0
2019-03-27T02:20:39.002Z,0
2019-03-27T02:21:39.115Z,0
2019-03-27T02:22:39.224Z,0
2019-03-27T02:23:39.347Z,0
2019-03-27T02:24:39.453Z,0
2019-03-27T02:25:39.593Z,0
2019-03-27T02:26:39.691Z,0
2019-03-27T02:27:39.806Z,0
2019-03-27T02:28:39.938Z,0
2019-03-27T02:29:40.063Z,0
2019-03-27T02:30:40.222Z,0
2019-03-27T02:31:40.197Z,0
2019-03-27T02:32:40.312Z,0
2019-03-27T02:33:40.426Z,0
2019-03-27T02:34:40.517Z,0
2019-03-27T02:35:40.653Z,0
2019-03-27T02:36:40.758Z,0
2019-03-27T02:37:40.871Z,0
2019-03-27T02:38:40.975Z,0
2019-03-27T02:39:41.077Z,0
2019-03-27T02:40:41.232Z,0
2019-03-27T02:41:41.366Z,0
2019-03-27T02:42:41.468Z,0
2019-03-27T02:43:41.565Z,0
2019-03-27T02:44:41.684Z,0
2019-03-27T02:45:41.819Z,0
2019-03-27T02:46:41.944Z,0
2019-03-27T02:47:42.034Z,0
2019-03-27T02:48:42.147Z,0
2019-03-27T02:49:42.253Z,0
2019-03-27T02:50:42.379Z,0
2019-03-27T02:51:42.363Z,0
2019-03-27T02:52:42.508Z,0
2019-03-27T02:53:42.621Z,0
2019-03-27T02:54:42.737Z,0
2019-03-27T02:55:42.879Z,0
2019-03-27T02:56:43.004Z,0
2019-03-27T02:57:43.134Z,0
2019-03-27T02:58:43.246Z,0
2019-03-27T02:59:43.348Z,0
2019-03-27T03:00:43.485Z,0
2019-03-27T03:01:47.655Z,0
2019-03-27T03:02:43.680Z,0
2019-03-27T03:03:43.786Z,0
2019-03-27T03:04:43.894Z,0
2019-03-27T03:05:44.053Z,0
2019-03-27T03:06:44.166Z,0
2019-03-27T03:07:44.253Z,0
2019-03-27T03:08:44.353Z,0
2019-03-27T03:09:44.471Z,0
2019-03-27T03:10:45.773Z,0
2019-03-27T03:11:44.719Z,0
2019-03-27T03:12:44.830Z,0
2019-03-27T03:13:44.921Z,0
2019-03-27T03:14:45.023Z,0
2019-03-27T03:15:45.167Z,0
2019-03-27T03:16:45.251Z,0
2019-03-27T03:17:45.375Z,0
2019-03-27T03:18:45.466Z,0
2019-03-27T03:19:45.575Z,0
2019-03-27T03:20:45.705Z,0
2019-03-27T03:21:45.668Z,0
2019-03-27T03:22:45.770Z,0
2019-03-27T03:23:45.878Z,0
2019-03-27T03:24:45.992Z,0
2019-03-27T03:25:46.102Z,0
2019-03-27T03:26:50.430Z,0
2019-03-27T03:27:46.368Z,0
2019-03-27T03:28:46.411Z,0
2019-03-27T03:29:46.498Z,0
2019-03-27T03:30:46.613Z,0
2019-03-27T03:31:46.726Z,0
2019-03-27T03:32:46.845Z,0
2019-03-27T03:33:46.938Z,0
2019-03-27T03:34:47.034Z,0
2019-03-27T03:35:47.121Z,0
2019-03-27T03:36:47.249Z,0
2019-03-27T03:37:48.351Z,0
2019-03-27T03:38:47.429Z,0
2019-03-27T03:39:47.538Z,0
2019-03-27T03:40:47.640Z,0
2019-03-27T03:41:47.776Z,0
2019-03-27T03:42:47.882Z,0
2019-03-27T03:43:47.987Z,0
2019-03-27T03:44:48.091Z,0
2019-03-27T03:45:48.189Z,0
2019-03-27T03:46:59.231Z,0
2019-03-27T03:47:49.391Z,0
2019-03-27T03:48:48.503Z,0
2019-03-27T03:49:48.586Z,0
2019-03-27T03:50:48.698Z,0
2019-03-27T03:51:48.852Z,0
2019-03-27T03:52:48.942Z,0
2019-03-27T03:53:49.042Z,0
2019-03-27T03:54:49.141Z,0
2019-03-27T03:55:49.252Z,0
2019-03-27T03:56:49.381Z,0
2019-03-27T03:57:49.480Z,0
2019-03-27T03:58:49.601Z,0
2019-03-27T03:59:49.719Z,0
2019-03-27T04:00:49.818Z,0
2019-03-27T04:01:49.961Z,0
2019-03-27T04:02:50.057Z,0
2019-03-27T04:03:50.187Z,0
2019-03-27T04:04:50.288Z,0
2019-03-27T04:05:50.398Z,0
2019-03-27T04:06:50.533Z,0
2019-03-27T04:07:50.635Z,0
2019-03-27T04:08:50.800Z,0
2019-03-27T04:09:50.739Z,0
2019-03-27T04:10:50.865Z,0
2019-03-27T04:11:50.998Z,0
2019-03-27T04:12:51.107Z,0
2019-03-27T04:13:51.262Z,0
2019-03-27T04:14:51.369Z,0
2019-03-27T04:15:51.495Z,0
2019-03-27T04:16:51.672Z,0
2019-03-27T04:17:51.794Z,0
2019-03-27T04:18:51.891Z,0
2019-03-27T04:19:52.029Z,0
2019-03-27T04:20:52.132Z,0
2019-03-27T04:21:52.305Z,0
2019-03-27T04:22:52.422Z,0
2019-03-27T04:23:52.517Z,0
2019-03-27T04:24:52.638Z,0
2019-03-27T04:26:08.700Z,0
2019-03-27T04:26:53.865Z,0
2019-03-27T04:27:53.005Z,0
2019-03-27T04:28:53.107Z,0
2019-03-27T04:29:53.238Z,0
2019-03-27T04:30:53.354Z,0
2019-03-27T04:31:53.496Z,0
2019-03-27T04:32:53.618Z,0
2019-03-27T04:33:53.725Z,0
2019-03-27T04:34:54.827Z,0
2019-03-27T04:35:53.933Z,0
2019-03-27T04:36:54.146Z,0
2019-03-27T04:37:54.233Z,0
2019-03-27T04:38:54.338Z,0
2019-03-27T04:39:54.448Z,0
2019-03-27T04:40:54.540Z,0
2019-03-27T04:41:54.597Z,0
2019-03-27T04:42:54.730Z,0
2019-03-27T04:43:54.837Z,0
2019-03-27T04:44:54.946Z,0
2019-03-27T04:45:55.086Z,0
2019-03-27T04:46:55.221Z,0
2019-03-27T04:47:55.313Z,0
2019-03-27T04:48:55.429Z,0
2019-03-27T04:49:55.539Z,0
2019-03-27T04:50:55.654Z,0
2019-03-27T04:51:55.794Z,0
2019-03-27T04:52:55.903Z,0
2019-03-27T04:53:56.024Z,0
2019-03-27T04:54:56.138Z,0
2019-03-27T04:55:56.244Z,0
2019-03-27T04:56:56.374Z,0
2019-03-27T04:57:56.471Z,0
2019-03-27T04:58:56.595Z,0
2019-03-27T04:59:56.757Z,0
2019-03-27T05:00:56.931Z,0
2019-03-27T05:01:57.010Z,0
2019-03-27T05:02:58.094Z,0
2019-03-27T05:03:57.199Z,0
2019-03-27T05:04:57.306Z,0
2019-03-27T05:05:57.408Z,0
2019-03-27T05:06:57.594Z,0
2019-03-27T05:07:57.597Z,0
2019-03-27T05:08:57.685Z,0
2019-03-27T05:09:57.790Z,0
2019-03-27T05:10:57.908Z,0
2019-03-27T05:11:58.052Z,0
2019-03-27T05:12:58.168Z,0
2019-03-27T05:13:58.307Z,0
2019-03-27T05:14:58.485Z,0
2019-03-27T05:15:58.568Z,0
2019-03-27T05:16:59.707Z,0
2019-03-27T05:17:58.810Z,0
2019-03-27T05:18:58.912Z,0
2019-03-27T05:19:59.110Z,0
2019-03-27T05:20:59.081Z,5.625
2019-03-27T05:21:59.091Z,5.625
2019-03-27T05:22:59.092Z,5.625
2019-03-27T05:23:59.117Z,5.625
2019-03-27T05:24:59.261Z,5.625
2019-03-27T05:25:59.408Z,5.625
2019-03-27T05:26:59.609Z,5.625
2019-03-27T05:27:59.621Z,5.625
2019-03-27T05:28:59.622Z,5.625
2019-03-27T05:29:59.639Z,5.625
2019-03-27T05:30:59.786Z,5.625
2019-03-27T05:31:59.918Z,5.625
2019-03-27T05:32:59.972Z,11.25
2019-03-27T05:34:00.026Z,11.25
2019-03-27T05:35:00.103Z,11.25
2019-03-27T05:36:00.127Z,11.25
2019-03-27T05:37:00.217Z,11.25
2019-03-27T05:38:00.268Z,11.25
2019-03-27T05:39:00.316Z,11.25
2019-03-27T05:40:00.452Z,11.25
2019-03-27T05:41:00.435Z,11.25
2019-03-27T05:42:00.518Z,11.25
2019-03-27T05:43:01.348Z,11.25
2019-03-27T05:44:00.595Z,11.25
2019-03-27T05:45:00.646Z,11.25
2019-03-27T05:46:00.735Z,16.875
2019-03-27T05:47:00.837Z,16.875
2019-03-27T05:48:00.871Z,16.875
2019-03-27T05:49:00.925Z,22.5
2019-03-27T05:50:00.985Z,22.5
2019-03-27T05:51:01.036Z,22.5
2019-03-27T05:52:01.110Z,22.5
2019-03-27T05:53:01.191Z,22.5
2019-03-27T05:54:01.247Z,28.125
2019-03-27T05:55:01.307Z,28.125
2019-03-27T05:56:01.370Z,33.75
2019-03-27T05:57:01.448Z,33.75
2019-03-27T05:58:01.512Z,39.375
2019-03-27T05:59:01.563Z,39.375
2019-03-27T06:00:01.646Z,39.375
2019-03-27T06:01:01.718Z,39.375
2019-03-27T06:02:01.809Z,39.375
2019-03-27T06:03:01.863Z,39.375
2019-03-27T06:04:01.930Z,39.375
2019-03-27T06:05:01.974Z,45
2019-03-27T06:06:02.030Z,50.625
2019-03-27T06:07:02.109Z,50.625
2019-03-27T06:08:02.210Z,50.625
2019-03-27T06:09:03.264Z,50.625
2019-03-27T06:10:02.298Z,50.625
2019-03-27T06:11:02.332Z,50.625
2019-03-27T06:12:02.408Z,50.625
2019-03-27T06:13:02.471Z,50.625
2019-03-27T06:14:02.516Z,50.625
2019-03-27T06:15:02.559Z,45
2019-03-27T06:16:02.602Z,45
2019-03-27T06:17:02.682Z,45
2019-03-27T06:18:12.445Z,45
2019-03-27T06:19:03.766Z,39.375
2019-03-27T06:20:02.822Z,45
2019-03-27T06:21:02.921Z,45
2019-03-27T06:22:03.016Z,45
2019-03-27T06:23:03.087Z,50.625
2019-03-27T06:24:03.140Z,45
2019-03-27T06:25:03.186Z,50.625
2019-03-27T06:26:03.217Z,50.625
2019-03-27T06:27:03.287Z,45
2019-03-27T06:28:03.329Z,45
2019-03-27T06:29:03.381Z,45
2019-03-27T06:30:03.477Z,45
2019-03-27T06:31:03.516Z,45
2019-03-27T06:32:03.590Z,45
2019-03-27T06:33:03.654Z,45
2019-03-27T06:34:03.704Z,45
2019-03-27T06:35:04.740Z,50.625
2019-03-27T06:36:03.855Z,50.625
2019-03-27T06:37:03.845Z,45
2019-03-27T06:38:03.910Z,45
2019-03-27T06:39:03.989Z,39.375
2019-03-27T06:40:04.026Z,39.375
2019-03-27T06:41:04.068Z,39.375
2019-03-27T06:42:04.173Z,45
2019-03-27T06:43:04.223Z,45
2019-03-27T06:44:04.336Z,50.625
2019-03-27T06:45:04.378Z,50.625
2019-03-27T06:46:04.433Z,50.625
2019-03-27T06:47:04.489Z,56.25
2019-03-27T06:48:04.568Z,56.25
2019-03-27T06:49:04.612Z,61.875
2019-03-27T06:50:04.674Z,56.25
2019-03-27T06:51:04.731Z,56.25
2019-03-27T06:52:04.798Z,61.875
2019-03-27T06:53:04.851Z,61.875
2019-03-27T06:54:04.878Z,67.5
2019-03-27T06:55:04.926Z,67.5
2019-03-27T06:56:04.967Z,67.5
2019-03-27T06:57:05.046Z,67.5
2019-03-27T06:58:05.085Z,67.5
2019-03-27T06:59:05.128Z,67.5
2019-03-27T07:00:05.170Z,73.125
2019-03-27T07:01:05.210Z,73.125
2019-03-27T07:02:05.305Z,73.125
2019-03-27T07:03:05.345Z,73.125
2019-03-27T07:04:10.616Z,78.75
2019-03-27T07:05:05.501Z,78.75
2019-03-27T07:06:05.553Z,84.375
2019-03-27T07:07:05.667Z,95.625
2019-03-27T07:08:05.716Z,101.25
2019-03-27T07:09:05.751Z,101.25
2019-03-27T07:10:05.798Z,112.5
2019-03-27T07:11:05.845Z,106.875
2019-03-27T07:12:05.917Z,101.25
2019-03-27T07:13:06.932Z,106.875
2019-03-27T07:14:05.973Z,101.25
2019-03-27T07:15:06.011Z,95.625
2019-03-27T07:16:06.180Z,106.875
2019-03-27T07:17:06.085Z,101.25
2019-03-27T07:18:07.114Z,95.625
2019-03-27T07:19:06.192Z,112.5
2019-03-27T07:20:06.235Z,112.5
2019-03-27T07:21:06.267Z,118.125
2019-03-27T07:22:06.344Z,123.75
2019-03-27T07:23:06.431Z,129.375
2019-03-27T07:24:06.456Z,146.25
2019-03-27T07:25:06.499Z,129.375
2019-03-27T07:26:06.562Z,118.125
2019-03-27T07:27:06.630Z,106.875
2019-03-27T07:28:06.684Z,95.625
2019-03-27T07:29:06.724Z,95.625
2019-03-27T07:30:06.807Z,95.625
2019-03-27T07:31:06.809Z,101.25
2019-03-27T07:32:06.968Z,106.875
2019-03-27T07:33:07.014Z,101.25
2019-03-27T07:34:08.080Z,95.625
2019-03-27T07:35:07.246Z,101.25
2019-03-27T07:36:07.118Z,101.25
2019-03-27T07:37:07.186Z,106.875
2019-03-27T07:38:07.224Z,112.5
2019-03-27T07:39:11.096Z,118.125
2019-03-27T07:40:07.306Z,135
2019-03-27T07:41:07.342Z,129.375
2019-03-27T07:42:07.434Z,118.125
2019-03-27T07:43:07.481Z,106.875
2019-03-27T07:44:07.545Z,101.25
2019-03-27T07:45:07.608Z,106.875
2019-03-27T07:46:07.657Z,106.875
2019-03-27T07:47:07.715Z,106.875
2019-03-27T07:48:07.761Z,118.125
2019-03-27T07:49:07.798Z,146.25
2019-03-27T07:50:07.837Z,163.125
2019-03-27T07:51:07.910Z,168.75
2019-03-27T07:52:07.979Z,168.75
2019-03-27T07:53:08.029Z,180
2019-03-27T07:54:08.067Z,196.875
2019-03-27T07:55:18.618Z,185.625
2019-03-27T07:56:09.122Z,174.375
2019-03-27T07:57:08.192Z,174.375
2019-03-27T07:58:08.234Z,191.25
2019-03-27T07:59:08.299Z,213.75
2019-03-27T08:00:08.371Z,208.125
2019-03-27T08:01:08.465Z,196.875
2019-03-27T08:02:08.473Z,191.25
2019-03-27T08:03:08.595Z,185.625
2019-03-27T08:04:08.588Z,168.75
2019-03-27T08:05:08.617Z,146.25
2019-03-27T08:06:08.701Z,146.25
2019-03-27T08:07:08.792Z,157.5
2019-03-27T08:08:09.898Z,180
2019-03-27T08:09:08.955Z,196.875
2019-03-27T08:10:09.001Z,213.75
2019-03-27T08:11:09.036Z,213.75
2019-03-27T08:12:09.102Z,219.375
2019-03-27T08:13:09.158Z,258.75
2019-03-27T08:14:09.196Z,292.5
2019-03-27T08:15:09.244Z,258.75
2019-03-27T08:16:09.294Z,258.75
2019-03-27T08:17:09.374Z,258.75
2019-03-27T08:18:09.418Z,258.75
2019-03-27T08:19:09.439Z,258.75
2019-03-27T08:20:09.483Z,258.75
2019-03-27T08:21:09.550Z,376.875
2019-03-27T08:22:09.616Z,225
2019-03-27T08:23:09.643Z,180
2019-03-27T08:24:09.685Z,157.5
2019-03-27T08:25:09.763Z,151.875
2019-03-27T08:26:09.809Z,157.5
2019-03-27T08:27:09.900Z,157.5
2019-03-27T08:28:09.936Z,157.5
2019-03-27T08:29:09.976Z,174.375
2019-03-27T08:30:10.018Z,230.625
2019-03-27T08:31:10.058Z,759.375
2019-03-27T08:32:10.114Z,421.875
2019-03-27T08:33:10.171Z,399.375
2019-03-27T08:34:10.220Z,393.75
2019-03-27T08:35:10.266Z,247.5
2019-03-27T08:36:10.302Z,275.625
2019-03-27T08:37:10.366Z,253.125
2019-03-27T08:38:10.413Z,241.875
2019-03-27T08:39:10.450Z,247.5
2019-03-27T08:40:10.500Z,253.125
2019-03-27T08:41:10.543Z,253.125
2019-03-27T08:42:10.631Z,253.125
2019-03-27T08:43:20.492Z,253.125
2019-03-27T08:44:11.696Z,292.5
2019-03-27T08:45:10.754Z,708.75
2019-03-27T08:46:10.802Z,416.25
2019-03-27T08:47:10.873Z,793.125
2019-03-27T08:48:10.939Z,534.375
2019-03-27T08:49:21.072Z,399.375
2019-03-27T08:50:11.981Z,298.125
2019-03-27T08:51:11.037Z,275.625
2019-03-27T08:52:11.103Z,337.5
2019-03-27T08:53:11.174Z,331.875
2019-03-27T08:54:11.217Z,320.625
2019-03-27T08:55:13.691Z,635.625
2019-03-27T08:56:11.321Z,230.625
2019-03-27T08:57:11.458Z,236.25
2019-03-27T08:58:11.502Z,247.5
2019-03-27T08:59:11.544Z,455.625
2019-03-27T09:00:11.607Z,444.375
2019-03-27T09:01:12.638Z,303.75
2019-03-27T09:02:11.702Z,196.875
2019-03-27T09:03:11.802Z,388.125
2019-03-27T09:04:11.850Z,405
2019-03-27T09:05:11.926Z,343.125
2019-03-27T09:06:12.014Z,376.875
2019-03-27T09:07:12.119Z,601.875
2019-03-27T09:08:12.176Z,708.75
2019-03-27T09:09:12.302Z,703.125
2019-03-27T09:10:12.376Z,607.5
2019-03-27T09:11:12.420Z,478.125
2019-03-27T09:12:12.520Z,315
2019-03-27T09:13:12.581Z,275.625
2019-03-27T09:14:12.623Z,270
2019-03-27T09:15:13.657Z,399.375
2019-03-27T09:16:12.688Z,438.75
2019-03-27T09:17:12.754Z,258.75
2019-03-27T09:18:12.798Z,225
2019-03-27T09:19:12.849Z,191.25
2019-03-27T09:20:12.887Z,163.125
2019-03-27T09:21:12.946Z,461.25
2019-03-27T09:22:13.004Z,421.875
2019-03-27T09:23:13.046Z,393.75
2019-03-27T09:24:13.086Z,292.5
2019-03-27T09:25:13.129Z,309.375
2019-03-27T09:26:13.235Z,405
2019-03-27T09:27:13.337Z,388.125
2019-03-27T09:28:13.432Z,556.875
2019-03-27T09:29:13.411Z,483.75
2019-03-27T09:30:13.462Z,427.5
2019-03-27T09:31:13.511Z,540
2019-03-27T09:32:13.584Z,607.5
2019-03-27T09:33:13.666Z,433.125
2019-03-27T09:34:13.736Z,298.125
2019-03-27T09:35:13.773Z,585
2019-03-27T09:36:13.838Z,770.625
2019-03-27T09:37:13.915Z,624.375
2019-03-27T09:38:13.951Z,669.375
2019-03-27T09:39:14.001Z,691.875
2019-03-27T09:40:14.058Z,815.625
2019-03-27T09:41:14.107Z,663.75
2019-03-27T09:42:15.163Z,410.625
2019-03-27T09:43:14.203Z,466.875
2019-03-27T09:44:14.245Z,303.75
2019-03-27T09:45:14.286Z,281.25
2019-03-27T09:46:14.329Z,438.75
2019-03-27T09:47:14.416Z,483.75
2019-03-27T09:48:14.456Z,635.625
2019-03-27T09:49:14.527Z,810
2019-03-27T09:50:14.596Z,855
2019-03-27T09:51:14.635Z,770.625
2019-03-27T09:52:14.704Z,556.875
2019-03-27T09:53:14.825Z,562.5
2019-03-27T09:54:14.847Z,680.625
2019-03-27T09:55:14.913Z,703.125
2019-03-27T09:56:19.199Z,742.5
2019-03-27T09:57:15.089Z,652.5
2019-03-27T09:58:15.172Z,399.375
2019-03-27T09:59:15.238Z,399.375
2019-03-27T10:00:15.303Z,326.25
2019-03-27T10:01:15.377Z,427.5
2019-03-27T10:02:15.444Z,714.375
2019-03-27T10:03:15.500Z,613.125
2019-03-27T10:04:15.539Z,714.375
2019-03-27T10:05:15.585Z,939.375
2019-03-27T10:06:15.625Z,663.75
2019-03-27T10:07:15.691Z,545.625
2019-03-27T10:08:15.740Z,787.5
2019-03-27T10:09:15.790Z,995.625
2019-03-27T10:10:15.839Z,298.125
2019-03-27T10:11:15.892Z,213.75
2019-03-27T10:12:16.944Z,180
2019-03-27T10:13:15.991Z,185.625
2019-03-27T10:14:16.048Z,196.875
2019-03-27T10:15:16.194Z,562.5
2019-03-27T10:16:16.226Z,376.875
2019-03-27T10:17:16.287Z,455.625
2019-03-27T10:18:16.309Z,556.875
2019-03-27T10:19:16.459Z,219.375
2019-03-27T10:20:16.486Z,225
2019-03-27T10:21:16.578Z,241.875
2019-03-27T10:22:16.596Z,286.875
2019-03-27T10:23:16.630Z,298.125
2019-03-27T10:24:16.694Z,883.125
2019-03-27T10:25:16.704Z,911.25
2019-03-27T10:26:16.783Z,916.875
2019-03-27T10:27:16.862Z,866.25
2019-03-27T10:28:16.991Z,556.875
2019-03-27T10:29:17.014Z,911.25
2019-03-27T10:30:17.054Z,438.75
2019-03-27T10:31:17.081Z,399.375
2019-03-27T10:32:17.249Z,495
2019-03-27T10:33:17.293Z,258.75
2019-03-27T10:34:17.358Z,208.125
2019-03-27T10:35:17.446Z,180
2019-03-27T10:36:17.505Z,168.75
2019-03-27T10:37:17.571Z,163.125
2019-03-27T10:38:17.617Z,174.375
2019-03-27T10:39:17.699Z,180
2019-03-27T10:40:17.801Z,202.5
2019-03-27T10:41:17.902Z,236.25
2019-03-27T10:42:17.977Z,270
2019-03-27T10:43:17.994Z,365.625
2019-03-27T10:44:17.994Z,1248.75
2019-03-27T10:45:17.984Z,1209.375
2019-03-27T10:46:18.115Z,1119.375
2019-03-27T10:47:18.245Z,1074.375
2019-03-27T10:48:18.288Z,838.125
2019-03-27T10:49:18.345Z,568.125
2019-03-27T10:50:18.473Z,337.5
2019-03-27T10:51:18.525Z,298.125
2019-03-27T10:52:18.603Z,270
2019-03-27T10:53:18.618Z,236.25
2019-03-27T10:54:18.663Z,219.375
2019-03-27T10:55:18.711Z,213.75
2019-03-27T10:56:18.758Z,208.125
2019-03-27T10:57:18.825Z,208.125
2019-03-27T10:58:18.903Z,213.75
2019-03-27T10:59:18.958Z,236.25
2019-03-27T11:00:19.075Z,258.75
2019-03-27T11:01:19.148Z,298.125
2019-03-27T11:02:19.204Z,331.875
2019-03-27T11:03:19.250Z,388.125
2019-03-27T11:04:19.292Z,427.5
2019-03-27T11:05:19.319Z,540
2019-03-27T11:06:19.345Z,871.875
2019-03-27T11:07:19.558Z,568.125
2019-03-27T11:08:19.588Z,624.375
2019-03-27T11:09:19.617Z,596.25
2019-03-27T11:10:19.704Z,1023.75
2019-03-27T11:11:19.738Z,714.375
2019-03-27T11:12:19.806Z,838.125
2019-03-27T11:13:19.837Z,478.125
2019-03-27T11:14:19.901Z,399.375
2019-03-27T11:15:20.974Z,399.375
2019-03-27T11:16:20.058Z,405
2019-03-27T11:17:20.165Z,444.375
2019-03-27T11:18:20.118Z,461.25
2019-03-27T11:19:20.173Z,483.75
2019-03-27T11:20:30.174Z,568.125
2019-03-27T11:21:21.241Z,663.75
2019-03-27T11:22:20.353Z,669.375
2019-03-27T11:23:20.419Z,731.25
2019-03-27T11:24:20.459Z,686.25
2019-03-27T11:25:20.643Z,708.75
2019-03-27T11:26:20.600Z,759.375
2019-03-27T11:27:20.749Z,725.625
2019-03-27T11:28:20.802Z,832.5
2019-03-27T11:29:20.843Z,635.625
2019-03-27T11:30:20.886Z,618.75
2019-03-27T11:31:20.938Z,787.5
2019-03-27T11:32:21.009Z,1001.25
2019-03-27T11:33:21.106Z,860.625
2019-03-27T11:34:22.143Z,781.875
2019-03-27T11:35:21.192Z,1023.75
2019-03-27T11:36:21.265Z,1029.375
2019-03-27T11:37:21.311Z,1164.375
2019-03-27T11:38:21.450Z,1091.25
2019-03-27T11:39:24.518Z,1417.5
2019-03-27T11:40:21.578Z,1288.125
2019-03-27T11:41:21.690Z,1130.625
2019-03-27T11:42:21.778Z,798.75
2019-03-27T11:43:21.906Z,686.25
2019-03-27T11:44:21.982Z,658.125
2019-03-27T11:45:22.171Z,691.875
2019-03-27T11:46:23.040Z,928.125
2019-03-27T11:47:23.075Z,770.625
2019-03-27T11:48:22.153Z,590.625
2019-03-27T11:49:22.191Z,556.875
2019-03-27T11:50:22.238Z,624.375
2019-03-27T11:51:22.289Z,652.5
2019-03-27T11:52:22.342Z,849.375
2019-03-27T11:53:23.424Z,1057.5
2019-03-27T11:54:22.506Z,945
2019-03-27T11:55:22.570Z,1102.5
2019-03-27T11:56:22.615Z,945
2019-03-27T11:57:22.669Z,866.25
2019-03-27T11:58:22.739Z,804.375
2019-03-27T11:59:22.786Z,1035
2019-03-27T12:00:22.838Z,973.125
2019-03-27T12:01:22.890Z,1051.875
2019-03-27T12:02:23.927Z,1456.875
2019-03-27T12:03:22.988Z,1198.125
2019-03-27T12:04:23.045Z,1372.5
2019-03-27T12:05:23.104Z,1411.875
2019-03-27T12:06:23.148Z,1226.25
2019-03-27T12:07:23.185Z,1186.875
2019-03-27T12:08:23.261Z,1220.625
2019-03-27T12:09:23.304Z,1226.25
2019-03-27T12:10:23.347Z,1333.125
2019-03-27T12:11:23.427Z,1316.25
2019-03-27T12:12:23.481Z,1327.5
2019-03-27T12:13:23.561Z,1333.125
2019-03-27T12:14:23.605Z,1293.75
2019-03-27T12:15:23.654Z,1265.625
2019-03-27T12:16:23.711Z,1209.375
2019-03-27T12:17:23.757Z,1102.5
2019-03-27T12:18:23.827Z,1091.25
2019-03-27T12:19:24.889Z,1102.5
2019-03-27T12:20:23.955Z,1119.375
2019-03-27T12:21:24.046Z,1130.625
2019-03-27T12:22:24.117Z,1220.625
2019-03-27T12:23:24.223Z,1293.75
2019-03-27T12:24:24.259Z,1366.875
2019-03-27T12:25:24.307Z,1406.25
2019-03-27T12:26:24.360Z,1445.625
2019-03-27T12:27:24.399Z,1423.125
2019-03-27T12:28:24.463Z,1468.125
2019-03-27T12:29:24.513Z,1406.25
2019-03-27T12:30:24.561Z,1338.75
2019-03-27T12:31:24.634Z,1305
2019-03-27T12:32:25.110Z,1417.5
2019-03-27T12:33:24.788Z,1406.25
2019-03-27T12:34:24.831Z,1411.875
2019-03-27T12:35:24.899Z,1451.25
2019-03-27T12:36:24.937Z,1530
2019-03-27T12:37:24.979Z,1653.75
2019-03-27T12:38:25.073Z,1023.75
2019-03-27T12:39:25.114Z,742.5
2019-03-27T12:40:25.186Z,517.5
2019-03-27T12:41:25.238Z,444.375
2019-03-27T12:42:26.272Z,388.125
2019-03-27T12:43:25.332Z,365.625
2019-03-27T12:44:25.380Z,382.5
2019-03-27T12:45:25.430Z,371.25
2019-03-27T12:46:25.476Z,365.625
2019-03-27T12:47:25.590Z,337.5
2019-03-27T12:48:25.692Z,326.25
2019-03-27T12:49:26.763Z,309.375
2019-03-27T12:50:25.811Z,286.875
2019-03-27T12:51:25.852Z,281.25
2019-03-27T12:52:25.888Z,275.625
2019-03-27T12:53:26.046Z,264.375
2019-03-27T12:54:25.951Z,264.375
2019-03-27T12:55:26.035Z,258.75
2019-03-27T12:56:26.126Z,264.375
2019-03-27T12:57:26.172Z,270
2019-03-27T12:58:26.277Z,275.625
2019-03-27T12:59:26.344Z,275.625
2019-03-27T13:00:26.625Z,286.875
2019-03-27T13:01:26.553Z,298.125
2019-03-27T13:02:26.598Z,309.375
2019-03-27T13:03:26.715Z,315
2019-03-27T13:04:26.759Z,315
2019-03-27T13:05:26.805Z,286.875
2019-03-27T13:06:26.851Z,281.25
2019-03-27T13:07:26.895Z,292.5
2019-03-27T13:08:27.025Z,343.125
2019-03-27T13:09:27.079Z,348.75
2019-03-27T13:10:27.153Z,326.25
2019-03-27T13:11:27.197Z,292.5
2019-03-27T13:12:28.232Z,286.875
2019-03-27T13:13:27.321Z,343.125
2019-03-27T13:14:27.365Z,601.875
2019-03-27T13:15:27.461Z,568.125
2019-03-27T13:16:27.515Z,483.75
2019-03-27T13:17:27.605Z,495
2019-03-27T13:18:27.718Z,545.625
2019-03-27T13:19:27.813Z,596.25
2019-03-27T13:20:27.887Z,545.625